createdAt,value
2022-09-26T05:32:48.335Z,4.97
2022-09-26T05:35:15.600Z,5.68
2022-09-26T05:37:43.103Z,4.95
2022-09-26T05:40:30.949Z,4.78
2022-09-26T05:43:01.818Z,4.20
2022-09-26T05:45:31.200Z,4.18
2022-09-26T05:47:59.014Z,6.90
2022-09-26T05:50:27.218Z,5.47
2022-09-26T05:52:58.374Z,3.95
2022-09-26T05:55:27.442Z,4.60
2022-09-26T05:57:58.470Z,4.05
2022-09-26T06:00:27.562Z,4.55
2022-09-26T06:02:57.144Z,3.90
2022-09-26T06:05:25.508Z,5.07
2022-09-26T06:08:02.047Z,4.00
2022-09-26T06:10:40.370Z,4.03
2022-09-26T06:13:10.980Z,3.65
2022-09-26T06:15:43.322Z,3.40
2022-09-26T06:18:16.956Z,4.07
2022-09-26T06:20:44.478Z,4.18
2022-09-26T06:23:13.203Z,3.50
2022-09-26T06:25:44.533Z,3.42
2022-09-26T06:28:19.877Z,3.47
2022-09-26T06:30:48.254Z,4.60
2022-09-26T06:33:21.469Z,3.67
2022-09-26T06:36:01.467Z,3.03
2022-09-26T06:38:30.597Z,3.40
2022-09-26T06:41:02.471Z,3.40
2022-09-26T06:43:36.544Z,2.80
2022-09-26T06:46:12.129Z,3.30
2022-09-26T06:48:41.225Z,2.80
2022-09-26T06:51:11.033Z,2.90
2022-09-26T06:53:39.928Z,3.47
2022-09-26T06:56:17.538Z,2.97
2022-09-26T06:58:47.584Z,3.13
2022-09-26T07:01:19.323Z,2.83
2022-09-26T07:03:47.038Z,3.13
2022-09-26T07:06:24.451Z,2.95
2022-09-26T07:09:06.559Z,2.38
2022-09-26T07:12:02.656Z,3.70
2022-09-26T07:14:29.031Z,2.63
2022-09-26T07:17:01.077Z,2.50
2022-09-26T07:19:29.455Z,2.72
2022-09-26T07:21:58.700Z,2.17
2022-09-26T07:24:27.416Z,2.45
2022-09-26T07:26:54.630Z,2.65
2022-09-26T07:29:22.544Z,2.17
2022-09-26T07:31:50.058Z,2.50
2022-09-26T07:34:18.755Z,1.90
2022-09-26T07:36:49.806Z,2.28
2022-09-26T07:39:20.262Z,2.15
2022-09-26T07:41:49.643Z,2.25
2022-09-26T07:45:09.397Z,2.40
2022-09-26T07:47:29.619Z,2.22
2022-09-26T07:50:21.965Z,1.70
2022-09-26T07:52:51.391Z,1.65
2022-09-26T07:55:29.815Z,1.48
2022-09-26T07:58:00.256Z,1.23
2022-09-26T08:00:30.425Z,1.58
2022-09-26T08:03:01.617Z,1.38
2022-09-26T08:05:30.158Z,1.33
2022-09-26T08:07:57.841Z,1.13
2022-09-26T08:10:25.483Z,1.23
2022-09-26T08:12:52.848Z,0.93
2022-09-26T08:15:20.811Z,0.73
2022-09-26T08:17:48.363Z,1.05
2022-09-26T08:20:16.132Z,0.90
2022-09-26T08:22:43.580Z,0.60
2022-09-26T08:25:10.934Z,0.70
2022-09-26T08:27:38.620Z,1.83
2022-09-26T08:30:08.131Z,0.73
2022-09-26T08:32:37.315Z,0.60
2022-09-26T08:35:06.079Z,0.80
2022-09-26T08:37:33.518Z,0.80
2022-09-26T08:40:01.064Z,0.80
2022-09-26T08:42:56.524Z,0.90
2022-09-26T08:46:00.001Z,0.63
2022-09-26T08:48:53.768Z,1.15
2022-09-26T08:51:34.737Z,0.82
2022-09-26T08:54:11.887Z,0.45
2022-09-26T08:57:00.377Z,0.73
2022-09-26T08:59:35.680Z,0.95
2022-09-26T09:02:13.117Z,0.98
2022-09-26T09:04:53.967Z,0.20
2022-09-26T09:07:25.151Z,0.50
2022-09-26T09:10:01.528Z,0.70
2022-09-26T09:12:56.269Z,0.60
2022-09-26T09:15:57.541Z,0.98
2022-09-26T09:18:43.629Z,1.30
2022-09-26T09:21:41.460Z,1.15
2022-09-26T09:24:18.777Z,11.15
2022-09-26T09:30:16.578Z,1.00
2022-09-26T09:33:03.925Z,2.42
2022-09-26T09:39:06.412Z,0.65
2022-09-26T09:41:45.007Z,0.50
2022-09-26T09:47:45.669Z,0.47
2022-09-26T09:53:31.587Z,0.53
2022-09-26T09:56:28.034Z,1.05
2022-09-26T09:59:51.458Z,0.47
2022-09-26T10:02:33.055Z,0.30
2022-09-26T10:05:41.396Z,0.82
2022-09-26T10:08:29.837Z,0.45
2022-09-26T10:11:28.850Z,0.50
2022-09-26T10:14:04.326Z,1.95
2022-09-26T10:16:35.820Z,1.02
2022-09-26T10:19:15.180Z,0.93
2022-09-26T10:21:47.868Z,1.02
2022-09-26T10:24:41.493Z,0.60
2022-09-26T10:27:32.759Z,1.40
2022-09-26T10:30:37.992Z,1.00
2022-09-26T10:33:45.084Z,1.00
2022-09-26T10:36:26.857Z,0.43
2022-09-26T10:39:33.216Z,0.40
2022-09-26T10:42:13.589Z,0.60
2022-09-26T10:44:43.195Z,0.60
2022-09-26T10:47:18.909Z,0.77
2022-09-26T10:50:00.067Z,0.75
2022-09-26T10:52:40.455Z,0.60
2022-09-26T10:55:21.033Z,0.50
2022-09-26T10:57:54.106Z,0.77
2022-09-26T11:00:37.769Z,1.23
2022-09-26T11:03:09.860Z,1.25
2022-09-26T11:06:02.059Z,1.13
2022-09-26T11:08:33.902Z,1.60
2022-09-26T11:11:04.523Z,1.17
2022-09-26T11:14:03.531Z,0.80
2022-09-26T11:16:52.592Z,0.95
2022-09-26T11:19:58.685Z,0.80
2022-09-26T11:22:37.313Z,0.90
2022-09-26T11:27:47.688Z,0.60
2022-09-26T11:30:21.114Z,0.90
2022-09-26T11:32:56.344Z,1.08
2022-09-26T11:38:41.573Z,0.95
2022-09-26T11:41:38.887Z,0.52
2022-09-26T11:44:35.089Z,1.15
2022-09-26T11:47:37.254Z,1.20
2022-09-26T11:50:35.832Z,1.13
2022-09-26T11:53:32.070Z,0.70
2022-09-26T11:56:32.157Z,0.70
2022-09-26T11:59:24.897Z,0.50
2022-09-26T12:02:20.246Z,0.60
2022-09-26T12:10:34.443Z,0.57
2022-09-26T12:13:34.400Z,0.73
2022-09-26T12:16:42.056Z,0.57
2022-09-26T12:19:32.106Z,0.60
2022-09-26T12:22:29.248Z,1.02
2022-09-26T12:28:09.246Z,0.68
2022-09-26T12:30:45.568Z,0.65
2022-09-26T12:33:33.860Z,0.70
2022-09-26T12:36:21.916Z,0.68
2022-09-26T12:39:16.681Z,0.80
2022-09-26T12:41:59.690Z,0.80
2022-09-26T12:44:54.747Z,0.70
2022-09-26T12:47:37.188Z,0.85
2022-09-26T12:50:39.681Z,1.05
2022-09-26T12:56:30.418Z,0.60
2022-09-26T12:59:20.133Z,0.90
2022-09-26T13:02:17.345Z,0.80
2022-09-26T13:05:15.616Z,1.00
2022-09-26T13:08:23.411Z,2.53
2022-09-26T13:11:11.351Z,1.00
2022-09-26T13:14:13.054Z,0.80
2022-09-26T13:17:09.530Z,0.77
2022-09-26T13:19:51.669Z,5.95
2022-09-26T13:22:46.026Z,1.23
2022-09-26T13:25:19.056Z,1.08
2022-09-26T13:30:27.791Z,0.80
2022-09-26T13:33:05.560Z,1.00
2022-09-26T13:35:36.983Z,0.88
2022-09-26T13:38:34.150Z,0.75
2022-09-26T13:41:26.322Z,1.08
2022-09-26T13:44:33.515Z,0.93
2022-09-26T13:47:27.434Z,1.10
2022-09-26T13:50:18.277Z,1.20
2022-09-26T13:53:10.622Z,0.70
2022-09-26T13:55:43.323Z,0.93
2022-09-26T13:58:21.589Z,1.08
2022-09-26T14:00:53.134Z,1.00
2022-09-26T14:06:09.482Z,2.65
2022-09-26T14:09:17.097Z,0.95
2022-09-26T14:11:51.232Z,0.88
2022-09-26T14:14:38.026Z,1.00
2022-09-26T14:17:45.230Z,1.17
2022-09-26T14:20:20.617Z,1.30
2022-09-26T14:22:54.467Z,1.15
2022-09-26T14:28:35.547Z,0.90
2022-09-26T14:34:20.397Z,0.90
2022-09-26T14:36:49.790Z,0.90
2022-09-26T14:39:27.592Z,1.23
2022-09-26T14:41:56.301Z,1.08
2022-09-26T14:44:24.258Z,0.88
2022-09-26T14:46:54.705Z,1.05
2022-09-26T14:49:26.318Z,2.33
2022-09-26T14:52:00.774Z,1.13
2022-09-26T14:54:40.315Z,0.85
2022-09-26T14:57:21.073Z,2.15
2022-09-26T14:59:48.820Z,1.20
2022-09-26T15:02:38.322Z,0.80
2022-09-26T15:05:15.201Z,0.90
2022-09-26T15:07:47.847Z,0.82
2022-09-26T15:10:26.037Z,1.00
2022-09-26T15:13:07.745Z,0.70
2022-09-26T15:15:54.304Z,0.73
2022-09-26T15:18:34.896Z,0.82
2022-09-26T15:21:40.275Z,0.85
2022-09-26T15:24:33.451Z,0.68
2022-09-26T15:27:18.871Z,1.52
2022-09-26T15:29:49.414Z,0.80
2022-09-26T15:32:25.881Z,0.98
2022-09-26T15:34:54.943Z,0.90
2022-09-26T15:37:30.064Z,0.80
2022-09-26T15:40:09.287Z,0.90
2022-09-26T15:42:56.462Z,1.17
2022-09-26T15:48:32.660Z,0.70
2022-09-26T15:51:11.430Z,1.05
2022-09-26T15:53:46.568Z,0.70
2022-09-26T15:56:18.567Z,0.90
2022-09-26T15:58:51.398Z,0.95
